Time;durP1;ratioP1;P1;durP2;ratioP2;P2;SDS_P1;SDS_P2;PMS_P1;PMS_P2;Temp;Humidity;BMP_temperature;BMP_pressure;BME280_temperature;BME280_humidity;BME280_pressure;Samples;Min_cycle;Max_cycle;Signal;HPM_P1;HPM_P2
2024/02/11 00:01:02;;;;;;;6.43;4.78;;;16.70;96.50;;;;;;5012085;28;20037;-45
2024/02/11 00:03:27;;;;;;;6.50;3.92;;;16.80;96.30;;;;;;5011986;28;20100;-45
2024/02/11 00:05:57;;;;;;;6.85;4.50;;;16.70;96.30;;;;;;5011733;28;20113;-45
2024/02/11 00:08:23;;;;;;;6.65;3.90;;;16.70;96.30;;;;;;5011773;28;20024;-42
2024/02/11 00:10:53;;;;;;;7.43;4.30;;;16.70;96.30;;;;;;5011277;28;20030;-47
2024/02/11 00:13:19;;;;;;;5.35;4.20;;;16.80;96.40;;;;;;5013272;28;20075;-45
2024/02/11 00:15:45;;;;;;;7.22;4.20;;;16.80;96.40;;;;;;5012769;28;20240;-44
2024/02/11 00:18:14;;;;;;;6.35;4.22;;;16.80;96.40;;;;;;5012269;28;20508;-44
2024/02/11 00:20:40;;;;;;;5.43;4.38;;;16.70;96.40;;;;;;5011420;28;20068;-45
2024/02/11 00:23:06;;;;;;;6.00;3.63;;;16.70;96.40;;;;;;5012197;28;20065;-44
2024/02/11 00:25:32;;;;;;;6.10;4.03;;;16.80;96.40;;;;;;5012120;28;20503;-45
2024/02/11 00:27:59;;;;;;;5.03;3.80;;;16.80;96.40;;;;;;5011937;28;20483;-44
2024/02/11 00:30:28;;;;;;;5.55;4.30;;;16.80;96.40;;;;;;5011905;28;20471;-43
2024/02/11 00:32:56;;;;;;;5.38;3.85;;;16.80;96.40;;;;;;5011768;28;20320;-46
2024/02/11 00:35:27;;;;;;;5.30;3.90;;;16.80;96.40;;;;;;5012132;28;20045;-44
2024/02/11 00:37:53;;;;;;;5.63;3.60;;;16.80;96.40;;;;;;5011456;28;20034;-44
2024/02/11 00:40:21;;;;;;;5.07;3.70;;;16.80;96.40;;;;;;5011314;28;20044;-45
2024/02/11 00:42:47;;;;;;;5.40;3.78;;;16.80;96.40;;;;;;5011457;28;20030;-45
2024/02/11 00:45:13;;;;;;;4.70;3.67;;;16.80;96.40;;;;;;5011379;28;20029;-45
2024/02/11 00:47:43;;;;;;;6.20;4.00;;;16.80;96.50;;;;;;5011888;28;20022;-44
2024/02/11 00:50:13;;;;;;;4.57;3.53;;;16.80;96.50;;;;;;5011415;28;20033;-45
2024/02/11 00:52:41;;;;;;;4.38;3.55;;;16.80;96.50;;;;;;5012094;28;20030;-45
2024/02/11 00:55:14;;;;;;;5.10;3.70;;;16.80;96.50;;;;;;5011216;28;20519;-45
2024/02/11 00:57:41;;;;;;;4.72;3.20;;;16.80;96.50;;;;;;5011292;28;20034;-44
2024/02/11 01:00:11;;;;;;;5.07;3.60;;;16.80;96.80;;;;;;5011289;28;20057;-45
2024/02/11 01:02:38;;;;;;;4.53;3.60;;;16.80;96.50;;;;;;5011608;28;20021;-45
2024/02/11 01:05:04;;;;;;;5.65;3.75;;;16.80;96.50;;;;;;5011071;28;20026;-45
2024/02/11 01:07:31;;;;;;;4.35;3.45;;;16.80;96.50;;;;;;5011360;28;20176;-43
2024/02/11 01:09:57;;;;;;;3.85;2.97;;;16.80;96.50;;;;;;5011230;28;20018;-44
2024/02/11 01:12:23;;;;;;;5.00;3.70;;;16.80;96.60;;;;;;5011422;28;20057;-45
2024/02/11 01:14:50;;;;;;;4.97;3.78;;;16.80;96.60;;;;;;5011079;28;20022;-44
2024/02/11 01:17:19;;;;;;;4.53;3.40;;;16.80;96.60;;;;;;5011738;28;20030;-45
2024/02/11 01:19:45;;;;;;;4.65;3.63;;;16.80;96.90;;;;;;5011511;28;20032;-44
2024/02/11 01:22:11;;;;;;;4.78;3.25;;;16.80;96.60;;;;;;5011922;28;20061;-45
2024/02/11 01:24:37;;;;;;;4.05;3.05;;;16.80;96.60;;;;;;5015674;28;20500;-44
2024/02/11 01:27:03;;;;;;;5.00;3.47;;;16.80;96.60;;;;;;5015719;28;20029;-44
2024/02/11 01:29:28;;;;;;;4.85;3.70;;;16.80;96.60;;;;;;5014726;28;20025;-44
2024/02/11 01:31:54;;;;;;;4.15;3.33;;;16.80;96.60;;;;;;5014699;28;20061;-44
2024/02/11 01:34:19;;;;;;;4.35;3.40;;;16.80;96.60;;;;;;5014437;28;20554;-44
2024/02/11 01:36:45;;;;;;;3.97;3.40;;;16.80;96.70;;;;;;5014457;28;20021;-45
2024/02/11 01:39:11;;;;;;;3.85;2.95;;;16.70;96.70;;;;;;5014559;28;20026;-45
2024/02/11 01:41:37;;;;;;;4.20;3.22;;;16.70;96.70;;;;;;5014423;28;20061;-44
2024/02/11 01:44:03;;;;;;;4.35;3.22;;;16.70;96.70;;;;;;5014580;28;20053;-44
2024/02/11 01:46:29;;;;;;;4.97;3.50;;;16.70;96.70;;;;;;5014401;28;20305;-45
2024/02/11 01:49:02;;;;;;;5.20;3.22;;;16.70;96.70;;;;;;5014699;28;20540;-44
2024/02/11 01:51:32;;;;;;;4.28;3.35;;;16.70;96.70;;;;;;5014291;28;20033;-45
2024/02/11 01:53:59;;;;;;;4.60;3.22;;;16.70;96.70;;;;;;5014364;28;20548;-44
2024/02/11 01:56:25;;;;;;;3.53;3.13;;;16.70;96.70;;;;;;5015026;28;20472;-44
2024/02/11 01:58:51;;;;;;;5.28;3.30;;;16.60;96.70;;;;;;5015037;28;20037;-44
2024/02/11 02:01:18;;;;;;;4.15;3.20;;;16.60;96.80;;;;;;5014837;28;20026;-45
2024/02/11 02:03:47;;;;;;;4.72;3.00;;;16.50;96.80;;;;;;5014911;28;20022;-44
2024/02/11 02:06:15;;;;;;;5.72;3.10;;;16.50;96.90;;;;;;5014200;28;20045;-44
2024/02/11 02:08:40;;;;;;;4.03;3.03;;;16.40;97.00;;;;;;5014484;28;20057;-45
2024/02/11 02:11:07;;;;;;;4.97;3.30;;;16.30;97.00;;;;;;5014492;28;20022;-44
2024/02/11 02:13:33;;;;;;;4.65;3.13;;;16.20;97.10;;;;;;5014556;28;20468;-44
2024/02/11 02:15:59;;;;;;;4.63;3.35;;;16.20;97.20;;;;;;5014009;28;20084;-44
2024/02/11 02:18:24;;;;;;;3.35;2.75;;;16.10;97.30;;;;;;5014118;28;20412;-44
2024/02/11 02:20:50;;;;;;;3.10;2.80;;;16.00;97.40;;;;;;5013754;28;20034;-44
2024/02/11 02:23:16;;;;;;;4.57;3.38;;;15.90;97.50;;;;;;5013753;28;20096;-44
2024/02/11 02:25:41;;;;;;;3.33;2.70;;;15.80;97.60;;;;;;5013517;28;20030;-44
2024/02/11 02:28:07;;;;;;;4.32;3.00;;;15.80;97.80;;;;;;5013650;28;20026;-44
2024/02/11 02:30:33;;;;;;;2.92;2.42;;;15.70;97.80;;;;;;5013521;28;20022;-45
2024/02/11 02:33:00;;;;;;;3.72;2.40;;;15.60;97.90;;;;;;5013031;28;20029;-45
2024/02/11 02:35:25;;;;;;;3.60;2.30;;;15.50;98.10;;;;;;5014231;28;20491;-44
2024/02/11 02:37:52;;;;;;;3.45;2.63;;;15.50;98.20;;;;;;5014056;28;20022;-45
2024/02/11 02:40:24;;;;;;;3.00;2.38;;;15.40;98.30;;;;;;5013371;28;20543;-45
2024/02/11 02:42:50;;;;;;;2.80;2.13;;;15.30;98.40;;;;;;5014875;28;20030;-44
2024/02/11 02:45:16;;;;;;;5.80;2.50;;;15.20;98.50;;;;;;5014250;28;20018;-44
2024/02/11 02:47:42;;;;;;;3.72;2.30;;;15.20;98.60;;;;;;5014491;28;20105;-44
2024/02/11 02:50:08;;;;;;;2.97;2.20;;;15.10;99.00;;;;;;5014926;28;20032;-44
2024/02/11 02:52:36;;;;;;;2.72;1.90;;;15.10;98.80;;;;;;5013945;28;20029;-44
2024/02/11 02:55:05;;;;;;;3.47;2.17;;;15.00;98.90;;;;;;5013952;28;20034;-45
2024/02/11 02:57:33;;;;;;;3.33;1.92;;;14.90;99.00;;;;;;5013222;28;20029;-45
2024/02/11 02:59:59;;;;;;;3.13;1.92;;;14.80;99.10;;;;;;5012903;28;20026;-44
2024/02/11 03:02:24;;;;;;;2.80;1.77;;;14.80;99.50;;;;;;5013069;28;20026;-45
2024/02/11 03:04:51;;;;;;;2.72;2.00;;;14.70;99.30;;;;;;5013183;28;20490;-44
2024/02/11 03:07:17;;;;;;;3.25;2.03;;;14.70;99.40;;;;;;5012806;28;20129;-44
2024/02/11 03:09:42;;;;;;;2.40;1.90;;;14.60;99.50;;;;;;5012736;28;20097;-43
2024/02/11 03:12:08;;;;;;;2.60;1.90;;;14.50;99.60;;;;;;5014278;28;20392;-45
2024/02/11 03:14:33;;;;;;;2.50;1.50;;;14.50;99.70;;;;;;5013937;28;20026;-44
2024/02/11 03:16:59;;;;;;;2.22;1.60;;;14.40;99.80;;;;;;5012543;28;20042;-44
2024/02/11 03:19:26;;;;;;;1.73;1.48;;;14.40;99.80;;;;;;5013490;28;20037;-43
2024/02/11 03:21:52;;;;;;;1.85;1.50;;;14.30;99.90;;;;;;5012502;28;20420;-45
2024/02/11 03:24:18;;;;;;;5.32;1.55;;;14.30;99.90;;;;;;5014747;28;20400;-44
2024/02/11 03:26:43;;;;;;;2.60;1.88;;;14.20;99.90;;;;;;5014294;28;20104;-45
2024/02/11 03:29:09;;;;;;;1.85;1.60;;;14.20;99.90;;;;;;5013665;28;20705;-45
2024/02/11 03:31:35;;;;;;;1.92;1.55;;;14.10;99.90;;;;;;5012477;28;20041;-45
2024/02/11 03:34:04;;;;;;;1.80;1.60;;;14.00;99.90;;;;;;5012643;28;20420;-45
2024/02/11 03:36:30;;;;;;;2.25;1.50;;;14.00;99.90;;;;;;5012269;28;20030;-44
2024/02/11 03:38:56;;;;;;;1.52;1.30;;;14.00;99.90;;;;;;5012599;28;20026;-45
2024/02/11 03:41:22;;;;;;;1.92;1.35;;;13.90;99.90;;;;;;5013394;28;20500;-44
2024/02/11 03:43:49;;;;;;;2.00;1.40;;;13.90;99.90;;;;;;5012694;28;20474;-46
2024/02/11 03:46:15;;;;;;;1.95;1.48;;;13.80;99.90;;;;;;5013046;28;20025;-44
2024/02/11 03:48:41;;;;;;;2.10;1.50;;;13.80;99.90;;;;;;5012923;28;20131;-45
2024/02/11 03:51:07;;;;;;;2.03;1.40;;;13.80;99.90;;;;;;5012121;28;20060;-44
2024/02/11 03:53:33;;;;;;;3.28;1.52;;;13.70;99.90;;;;;;5012061;28;20030;-43
2024/02/11 03:56:04;;;;;;;1.65;1.30;;;13.70;99.90;;;;;;5012676;28;20022;-44
2024/02/11 03:58:34;;;;;;;1.48;1.15;;;13.70;99.90;;;;;;5013141;28;20400;-45
2024/02/11 04:01:00;;;;;;;1.50;1.00;;;13.60;99.90;;;;;;5011827;28;20026;-45
2024/02/11 04:03:25;;;;;;;1.60;1.33;;;13.60;99.90;;;;;;5011968;28;20069;-43
2024/02/11 04:05:55;;;;;;;1.60;1.00;;;13.50;99.90;;;;;;5011848;28;20092;-43
2024/02/11 04:08:21;;;;;;;1.85;1.10;;;13.50;99.90;;;;;;5012726;28;20029;-43
2024/02/11 04:10:52;;;;;;;1.58;1.25;;;13.50;99.90;;;;;;5012451;28;20029;-44
2024/02/11 04:13:24;;;;;;;1.88;1.35;;;13.40;99.90;;;;;;5013293;28;20026;-43
2024/02/11 04:15:53;;;;;;;1.40;1.10;;;13.40;99.90;;;;;;5012271;28;20522;-44
2024/02/11 04:18:21;;;;;;;1.73;1.08;;;13.40;99.90;;;;;;5011679;28;20033;-46
2024/02/11 04:20:46;;;;;;;1.40;1.05;;;13.40;99.90;;;;;;5011532;28;20368;-45
2024/02/11 04:23:14;;;;;;;1.17;1.05;;;13.30;99.90;;;;;;5011933;28;20085;-45
2024/02/11 04:25:41;;;;;;;1.60;1.00;;;13.30;99.90;;;;;;5011487;28;20040;-45
2024/02/11 04:28:07;;;;;;;1.63;1.00;;;13.30;99.90;;;;;;5011584;28;20297;-45
2024/02/11 04:30:37;;;;;;;1.40;1.10;;;13.20;99.90;;;;;;5011734;28;20103;-44
2024/02/11 04:33:06;;;;;;;2.38;1.00;;;13.20;99.90;;;;;;5011641;28;20076;-45
2024/02/11 04:35:33;;;;;;;1.27;1.00;;;13.20;99.90;;;;;;5012271;28;20022;-45
2024/02/11 04:38:00;;;;;;;5.28;1.00;;;13.10;99.90;;;;;;5012670;28;20029;-45
2024/02/11 04:40:26;;;;;;;1.10;0.82;;;13.10;99.90;;;;;;5011386;28;20041;-45
2024/02/11 04:42:56;;;;;;;1.20;1.08;;;13.10;99.90;;;;;;5011368;28;20401;-43
2024/02/11 04:45:23;;;;;;;1.20;0.82;;;13.10;99.90;;;;;;5012472;28;20365;-45
2024/02/11 04:47:59;;;;;;;1.23;0.90;;;13.10;99.90;;;;;;5011339;28;20026;-44
2024/02/11 04:50:29;;;;;;;1.13;0.68;;;13.00;99.90;;;;;;5011676;28;20123;-44
2024/02/11 04:52:58;;;;;;;1.67;0.82;;;13.00;99.90;;;;;;5011770;28;20026;-45
2024/02/11 04:55:27;;;;;;;0.90;0.70;;;13.00;99.90;;;;;;5012039;28;20026;-43
2024/02/11 04:57:53;;;;;;;1.13;0.90;;;12.90;99.90;;;;;;5014766;28;20022;-45
2024/02/11 05:00:24;;;;;;;0.95;0.80;;;12.90;99.90;;;;;;5015214;28;20022;-44
2024/02/11 05:02:55;;;;;;;0.98;0.82;;;12.90;99.90;;;;;;5015497;28;20034;-44
2024/02/11 05:05:28;;;;;;;1.10;0.80;;;12.90;99.90;;;;;;5016040;28;20434;-45
2024/02/11 05:07:56;;;;;;;1.05;0.80;;;12.90;99.90;;;;;;5015160;28;20022;-44
2024/02/11 05:10:24;;;;;;;1.08;0.70;;;12.80;99.90;;;;;;5015577;28;20022;-45
2024/02/11 05:12:50;;;;;;;0.90;0.68;;;12.80;99.90;;;;;;5015011;28;20022;-45
2024/02/11 05:15:23;;;;;;;1.25;0.73;;;12.80;99.90;;;;;;5014884;28;20420;-44
2024/02/11 05:17:50;;;;;;;0.87;0.60;;;12.80;99.90;;;;;;5016150;28;20380;-45
2024/02/11 05:20:22;;;;;;;1.80;0.60;;;12.80;99.90;;;;;;5016394;28;20304;-45
2024/02/11 05:22:50;;;;;;;1.02;0.73;;;12.70;99.90;;;;;;5016009;28;20026;-45
2024/02/11 05:25:25;;;;;;;0.60;0.52;;;12.70;99.90;;;;;;5014558;28;20026;-44
2024/02/11 05:28:02;;;;;;;0.60;0.50;;;12.70;99.90;;;;;;5015453;28;20030;-45
2024/02/11 05:30:37;;;;;;;0.70;0.50;;;12.70;99.90;;;;;;5014647;28;20026;-45
2024/02/11 05:33:03;;;;;;;0.73;0.60;;;12.70;99.90;;;;;;5017392;28;20034;-44
2024/02/11 05:35:34;;;;;;;0.90;0.55;;;12.60;99.90;;;;;;5017504;28;20030;-45
2024/02/11 05:38:01;;;;;;;0.82;0.45;;;12.60;99.90;;;;;;5016036;28;20487;-44
2024/02/11 05:40:28;;;;;;;0.57;0.50;;;12.60;99.90;;;;;;5017319;28;20076;-45
2024/02/11 05:42:54;;;;;;;0.60;0.50;;;12.60;99.90;;;;;;5014329;28;20030;-45
2024/02/11 05:45:21;;;;;;;0.85;0.60;;;12.60;99.90;;;;;;5014374;28;20022;-45
2024/02/11 05:47:50;;;;;;;0.75;0.60;;;12.50;99.90;;;;;;5014298;28;20455;-45
2024/02/11 05:50:16;;;;;;;0.70;0.52;;;12.50;99.90;;;;;;5014687;28;20121;-45
2024/02/11 05:52:43;;;;;;;0.80;0.70;;;12.50;99.90;;;;;;5014212;28;20026;-45
2024/02/11 05:55:11;;;;;;;0.50;0.47;;;12.50;99.90;;;;;;5015505;28;20065;-44
2024/02/11 05:57:40;;;;;;;0.90;0.60;;;12.50;99.90;;;;;;5014327;28;20018;-45
2024/02/11 06:00:18;;;;;;;0.70;0.50;;;12.50;99.90;;;;;;5015270;28;20425;-44
2024/02/11 06:02:49;;;;;;;0.45;0.40;;;12.40;99.90;;;;;;5015433;28;20026;-44
2024/02/11 06:05:15;;;;;;;0.70;0.50;;;12.40;99.90;;;;;;5013264;28;20390;-44
2024/02/11 06:07:45;;;;;;;0.85;0.60;;;12.50;99.90;;;;;;5014531;28;20056;-44
2024/02/11 06:10:13;;;;;;;0.70;0.50;;;12.40;99.90;;;;;;5015223;28;20057;-44
2024/02/11 06:12:43;;;;;;;0.50;0.40;;;12.40;99.90;;;;;;5014300;28;20060;-44
2024/02/11 06:15:20;;;;;;;1.23;0.60;;;12.40;99.90;;;;;;5014681;28;20508;-44
2024/02/11 06:17:49;;;;;;;0.70;0.43;;;12.40;99.90;;;;;;5014259;28;20145;-45
2024/02/11 06:20:17;;;;;;;0.50;0.40;;;12.30;99.90;;;;;;5013920;28;20041;-45
2024/02/11 06:22:46;;;;;;;0.45;0.38;;;12.30;99.90;;;;;;5013856;28;20041;-46
2024/02/11 06:25:12;;;;;;;0.55;0.40;;;12.30;99.90;;;;;;5013819;28;20041;-45
2024/02/11 06:27:38;;;;;;;0.90;0.50;;;12.30;99.90;;;;;;5014164;28;20026;-45
2024/02/11 06:30:13;;;;;;;0.68;0.55;;;12.30;99.90;;;;;;5014122;28;20159;-45
2024/02/11 06:32:53;;;;;;;0.60;0.40;;;12.30;99.90;;;;;;5015301;28;20034;-45
2024/02/11 06:35:19;;;;;;;0.50;0.50;;;12.30;99.90;;;;;;5012946;28;20065;-44
2024/02/11 06:37:48;;;;;;;0.60;0.40;;;12.30;99.90;;;;;;5013465;28;20034;-46
2024/02/11 06:40:17;;;;;;;0.82;0.50;;;12.20;99.90;;;;;;5013756;28;20032;-46
2024/02/11 06:42:44;;;;;;;0.45;0.40;;;12.20;99.90;;;;;;5013273;28;20480;-44
2024/02/11 06:45:12;;;;;;;0.50;0.40;;;12.20;99.90;;;;;;5014142;28;20037;-45
2024/02/11 06:47:41;;;;;;;0.68;0.55;;;12.20;99.90;;;;;;5014506;28;20040;-44
2024/02/11 06:50:14;;;;;;;0.80;0.65;;;12.20;99.90;;;;;;5015995;28;20025;-45
2024/02/11 06:52:40;;;;;;;1.63;0.90;;;12.20;99.90;;;;;;5014423;28;20028;-45
2024/02/11 06:55:09;;;;;;;0.60;0.50;;;12.20;99.90;;;;;;5014387;28;20080;-45
2024/02/11 06:57:37;;;;;;;0.70;0.50;;;12.20;99.90;;;;;;5012881;28;20026;-45
2024/02/11 07:00:08;;;;;;;0.73;0.55;;;12.20;99.90;;;;;;5014316;28;20022;-45
2024/02/11 07:02:34;;;;;;;0.52;0.52;;;12.20;99.90;;;;;;5016476;28;20022;-45
2024/02/11 07:05:00;;;;;;;0.47;0.40;;;12.20;99.90;;;;;;5013192;28;20029;-45
2024/02/11 07:07:25;;;;;;;0.40;0.40;;;12.20;99.90;;;;;;5012891;28;20022;-46
2024/02/11 07:09:51;;;;;;;0.50;0.50;;;12.20;99.90;;;;;;5013080;28;20026;-45
2024/02/11 07:12:18;;;;;;;0.90;0.45;;;12.20;99.90;;;;;;5012925;28;20041;-45
2024/02/11 07:14:46;;;;;;;0.77;0.50;;;12.20;99.90;;;;;;5012776;28;20029;-45
2024/02/11 07:17:16;;;;;;;0.90;0.68;;;12.20;99.90;;;;;;5012783;28;20038;-45
2024/02/11 07:19:42;;;;;;;0.70;0.50;;;12.20;99.90;;;;;;5013447;28;20022;-45
2024/02/11 07:22:08;;;;;;;0.55;0.50;;;12.20;99.90;;;;;;5012529;28;20113;-45
2024/02/11 07:24:41;;;;;;;0.43;0.40;;;12.20;99.90;;;;;;5012527;28;20105;-45
2024/02/11 07:27:09;;;;;;;0.60;0.60;;;12.30;99.90;;;;;;5012518;28;20018;-45
2024/02/11 07:29:35;;;;;;;0.85;0.65;;;12.30;99.90;;;;;;5012863;28;20018;-45
2024/02/11 07:32:02;;;;;;;0.98;0.88;;;12.30;99.90;;;;;;5012514;28;20053;-45
2024/02/11 07:34:29;;;;;;;0.70;0.50;;;12.30;99.90;;;;;;5012619;28;20458;-45
2024/02/11 07:36:55;;;;;;;0.57;0.50;;;12.30;99.90;;;;;;5014131;28;20026;-45
2024/02/11 07:39:21;;;;;;;1.10;0.80;;;12.40;99.90;;;;;;5013231;28;20105;-46
2024/02/11 07:41:46;;;;;;;0.73;0.60;;;12.40;99.90;;;;;;5011044;28;20568;-45
2024/02/11 07:44:13;;;;;;;0.90;0.63;;;12.40;99.90;;;;;;5012170;28;20022;-45
2024/02/11 07:46:39;;;;;;;1.20;0.80;;;12.50;99.90;;;;;;5012192;28;20077;-46
2024/02/11 07:49:05;;;;;;;2.25;1.48;;;12.50;99.90;;;;;;5012119;28;20468;-44
2024/02/11 07:51:30;;;;;;;2.10;1.48;;;12.60;99.90;;;;;;5012013;28;20030;-46
2024/02/11 07:53:56;;;;;;;1.75;1.25;;;12.60;99.90;;;;;;5012016;28;20030;-45
2024/02/11 07:56:22;;;;;;;1.80;1.00;;;12.60;99.90;;;;;;5011969;28;20532;-46
2024/02/11 07:58:48;;;;;;;1.27;1.00;;;12.70;99.90;;;;;;5012411;28;20078;-45
2024/02/11 08:01:14;;;;;;;1.63;1.02;;;12.70;99.90;;;;;;5011802;28;20484;-45
2024/02/11 08:03:39;;;;;;;1.40;1.10;;;12.80;99.90;;;;;;5013162;28;20037;-45
2024/02/11 08:06:09;;;;;;;1.70;1.00;;;12.90;99.90;;;;;;5012239;28;20030;-45
2024/02/11 08:08:37;;;;;;;1.15;1.00;;;13.00;99.90;;;;;;5011737;28;20018;-45
2024/02/11 08:11:03;;;;;;;1.20;0.88;;;13.00;99.90;;;;;;5012481;28;20341;-45
2024/02/11 08:13:31;;;;;;;1.08;0.93;;;13.00;99.90;;;;;;5012506;28;20540;-46
2024/02/11 08:15:56;;;;;;;1.95;1.15;;;13.10;99.90;;;;;;5011911;28;20025;-44
2024/02/11 08:18:22;;;;;;;1.77;1.02;;;13.20;99.90;;;;;;5012197;28;20472;-46
2024/02/11 08:20:47;;;;;;;1.67;1.10;;;13.20;99.90;;;;;;5011897;28;20527;-44
2024/02/11 08:23:13;;;;;;;1.35;1.10;;;13.30;99.90;;;;;;5013253;28;20029;-45
2024/02/11 08:25:39;;;;;;;1.25;1.00;;;13.30;99.90;;;;;;5011554;28;20102;-46
2024/02/11 08:28:04;;;;;;;1.60;1.05;;;13.40;99.90;;;;;;5014724;28;20310;-46
2024/02/11 08:30:30;;;;;;;1.77;1.20;;;13.40;99.90;;;;;;5011626;28;20022;-45
2024/02/11 08:32:57;;;;;;;1.48;1.13;;;13.50;99.90;;;;;;5011841;28;20034;-46
2024/02/11 08:35:22;;;;;;;2.92;1.00;;;13.60;99.90;;;;;;5011929;28;20037;-46
2024/02/11 08:37:48;;;;;;;1.40;0.98;;;13.60;99.90;;;;;;5011452;28;20026;-45
2024/02/11 08:40:14;;;;;;;1.55;1.17;;;13.70;99.90;;;;;;5011656;28;20034;-46
2024/02/11 08:42:41;;;;;;;1.50;1.20;;;13.80;99.90;;;;;;5011415;28;20072;-46
2024/02/11 08:45:07;;;;;;;1.05;0.95;;;13.80;99.90;;;;;;5011322;28;20021;-45
2024/02/11 08:47:34;;;;;;;1.08;0.98;;;13.90;99.90;;;;;;5011950;28;20053;-45
2024/02/11 08:50:00;;;;;;;1.58;0.98;;;13.90;99.90;;;;;;5011249;28;20018;-45
2024/02/11 08:52:26;;;;;;;1.15;0.95;;;14.00;99.90;;;;;;5011411;28;20026;-45
2024/02/11 08:54:52;;;;;;;1.42;1.23;;;14.10;99.90;;;;;;5011231;28;20029;-45
2024/02/11 08:57:18;;;;;;;1.20;1.08;;;14.10;99.90;;;;;;5012212;28;20410;-45
2024/02/11 08:59:47;;;;;;;2.05;1.27;;;14.20;99.90;;;;;;5012150;28;20029;-46
2024/02/11 09:02:14;;;;;;;1.92;1.30;;;14.30;99.90;;;;;;5011219;28;20119;-45
2024/02/11 09:04:42;;;;;;;2.13;1.42;;;14.40;99.90;;;;;;5011586;28;20022;-45
2024/02/11 09:07:09;;;;;;;2.17;1.20;;;14.40;99.90;;;;;;5011173;28;20021;-45
2024/02/11 09:09:35;;;;;;;1.40;1.20;;;14.50;99.90;;;;;;5012008;28;20388;-45
2024/02/11 09:12:01;;;;;;;2.08;1.25;;;14.50;99.90;;;;;;5011400;28;20026;-45
2024/02/11 09:14:29;;;;;;;2.70;1.38;;;14.60;99.90;;;;;;5011244;28;20437;-45
2024/02/11 09:16:59;;;;;;;1.75;1.20;;;14.60;99.90;;;;;;5011691;28;20400;-46
2024/02/11 09:19:28;;;;;;;1.30;1.10;;;14.70;99.90;;;;;;5011320;28;20510;-45
2024/02/11 09:21:55;;;;;;;1.85;1.10;;;14.70;99.90;;;;;;5011584;28;20423;-45
2024/02/11 09:24:22;;;;;;;1.67;1.15;;;14.80;99.90;;;;;;5012106;28;20451;-44
2024/02/11 09:26:51;;;;;;;2.33;1.20;;;14.80;99.90;;;;;;5011040;28;20033;-45
2024/02/11 09:29:17;;;;;;;2.38;1.20;;;14.90;99.90;;;;;;5011525;28;20021;-46
2024/02/11 09:31:43;;;;;;;1.17;1.00;;;14.90;99.90;;;;;;5011003;28;20053;-45
2024/02/11 09:34:10;;;;;;;2.20;1.00;;;15.00;99.90;;;;;;5011835;28;20135;-46
2024/02/11 09:36:36;;;;;;;1.33;1.02;;;15.00;99.90;;;;;;5011945;28;20511;-46
2024/02/11 09:39:03;;;;;;;1.67;1.13;;;15.00;99.90;;;;;;5011024;28;20489;-45
2024/02/11 09:41:29;;;;;;;1.70;1.00;;;15.10;99.90;;;;;;5010856;28;20030;-45
2024/02/11 09:44:02;;;;;;;1.60;1.15;;;15.10;99.90;;;;;;5012770;28;20024;-46
2024/02/11 09:46:35;;;;;;;1.98;1.30;;;15.20;99.90;;;;;;5015169;28;20065;-45
2024/02/11 09:49:08;;;;;;;1.70;1.25;;;15.20;99.90;;;;;;5013171;28;20068;-44
2024/02/11 09:51:35;;;;;;;1.83;1.30;;;15.30;99.90;;;;;;5015234;28;20440;-45
2024/02/11 09:54:02;;;;;;;1.65;1.10;;;15.30;99.90;;;;;;5014554;28;20041;-46
2024/02/11 09:56:28;;;;;;;1.33;1.23;;;15.40;99.90;;;;;;5014141;28;20594;-45
2024/02/11 09:58:56;;;;;;;2.25;1.27;;;15.40;99.90;;;;;;5014159;28;20116;-46
2024/02/11 10:01:21;;;;;;;1.73;1.25;;;15.40;99.90;;;;;;5014134;28;20411;-46
2024/02/11 10:03:55;;;;;;;1.95;1.23;;;15.50;99.90;;;;;;5012787;28;20022;-46
2024/02/11 10:06:43;;;;;;;1.75;1.30;;;15.50;99.90;;;;;;5014110;28;20476;-45
2024/02/11 10:09:12;;;;;;;2.33;1.30;;;15.50;99.80;;;;;;5013841;28;20034;-46
2024/02/11 10:11:41;;;;;;;1.58;1.00;;;15.60;99.80;;;;;;5013954;28;20034;-45
2024/02/11 10:14:13;;;;;;;2.88;1.25;;;15.60;99.70;;;;;;5013859;28;20033;-46
2024/02/11 10:16:42;;;;;;;1.88;1.20;;;15.60;99.70;;;;;;5013869;28;20472;-45
2024/02/11 10:19:09;;;;;;;1.55;1.13;;;15.70;99.60;;;;;;5013765;28;20049;-45
2024/02/11 10:21:35;;;;;;;1.63;1.10;;;15.70;99.60;;;;;;5013835;28;20419;-45
2024/02/11 10:24:04;;;;;;;1.33;1.00;;;15.70;99.80;;;;;;5013818;28;20026;-45
2024/02/11 10:26:31;;;;;;;1.65;1.10;;;15.70;99.40;;;;;;5014137;28;20022;-45
2024/02/11 10:29:02;;;;;;;1.67;1.10;;;15.80;99.40;;;;;;5013598;28;20105;-45
2024/02/11 10:31:29;;;;;;;1.52;1.20;;;15.80;99.30;;;;;;5013649;28;20069;-45
2024/02/11 10:33:57;;;;;;;1.75;1.20;;;15.80;99.20;;;;;;5013505;28;20029;-45
2024/02/11 10:36:24;;;;;;;2.15;1.17;;;15.80;99.20;;;;;;5013244;28;20030;-45
2024/02/11 10:38:52;;;;;;;1.40;0.90;;;15.90;99.20;;;;;;5013340;28;20431;-46
2024/02/11 10:41:18;;;;;;;1.85;1.00;;;15.90;99.10;;;;;;5013900;28;20029;-46
2024/02/11 10:43:44;;;;;;;1.00;0.80;;;16.00;99.10;;;;;;5013380;28;20061;-45
2024/02/11 10:46:10;;;;;;;1.52;1.00;;;16.00;99.00;;;;;;5013297;28;20040;-44
2024/02/11 10:48:36;;;;;;;1.60;1.13;;;16.00;99.00;;;;;;5013065;28;20026;-45
2024/02/11 10:51:25;;;;;;;1.67;1.10;;;16.00;98.90;;;;;;5013174;28;20049;-44
2024/02/11 10:53:59;;;;;;;1.65;1.10;;;16.10;99.20;;;;;;5013022;28;20025;-45
2024/02/11 10:56:28;;;;;;;1.50;1.17;;;16.10;98.80;;;;;;5013394;28;20033;-45
2024/02/11 10:58:59;;;;;;;1.85;1.10;;;16.10;98.70;;;;;;5013642;28;20026;-45
2024/02/11 11:01:25;;;;;;;1.35;1.10;;;16.10;98.60;;;;;;5013233;28;20404;-44
2024/02/11 11:03:52;;;;;;;1.27;0.95;;;16.20;98.60;;;;;;5012975;28;20084;-45
2024/02/11 11:06:21;;;;;;;1.10;0.93;;;16.20;98.50;;;;;;5013619;28;20053;-46
2024/02/11 11:08:48;;;;;;;1.35;1.15;;;16.20;98.50;;;;;;5013051;28;20018;-45
2024/02/11 11:11:27;;;;;;;1.13;0.90;;;16.30;98.50;;;;;;5013117;28;20033;-44
2024/02/11 11:13:56;;;;;;;1.75;1.02;;;16.30;98.40;;;;;;5013349;28;20029;-46
2024/02/11 11:16:27;;;;;;;0.70;0.70;;;16.30;98.40;;;;;;5013845;28;20060;-45
2024/02/11 11:18:53;;;;;;;1.00;0.90;;;16.30;98.30;;;;;;5012588;28;20045;-45
2024/02/11 11:21:21;;;;;;;1.52;1.05;;;16.30;98.30;;;;;;5012576;28;20061;-44
2024/02/11 11:23:48;;;;;;;1.23;1.10;;;16.30;98.20;;;;;;5012699;28;20034;-45
2024/02/11 11:26:19;;;;;;;2.08;1.17;;;16.30;98.20;;;;;;5012285;28;20034;-44
2024/02/11 11:28:46;;;;;;;1.10;0.93;;;16.30;98.20;;;;;;5012480;28;20076;-45
2024/02/11 11:31:12;;;;;;;1.30;1.00;;;16.30;98.10;;;;;;5012525;28;20113;-45
2024/02/11 11:33:38;;;;;;;1.00;0.90;;;16.40;98.10;;;;;;5012559;28;20030;-45
2024/02/11 11:36:05;;;;;;;1.10;0.90;;;16.40;98.10;;;;;;5012287;28;20068;-46
2024/02/11 11:38:31;;;;;;;1.20;1.00;;;16.40;98.10;;;;;;5012267;28;20022;-46
2024/02/11 11:40:58;;;;;;;1.25;0.80;;;16.40;98.10;;;;;;5012065;28;20614;-45
2024/02/11 11:43:24;;;;;;;1.23;1.13;;;16.40;98.10;;;;;;5012313;28;20026;-45
2024/02/11 11:46:03;;;;;;;2.05;0.98;;;16.40;98.20;;;;;;5012153;28;20033;-46
2024/02/11 11:48:29;;;;;;;1.00;0.77;;;16.50;98.10;;;;;;5012139;28;20022;-45
2024/02/11 11:51:03;;;;;;;1.27;1.02;;;16.50;98.10;;;;;;5012163;28;20026;-45
2024/02/11 11:53:29;;;;;;;1.02;0.90;;;16.50;98.00;;;;;;5012372;28;20021;-45
2024/02/11 11:55:56;;;;;;;0.95;0.85;;;16.60;98.10;;;;;;5012197;28;20053;-45
2024/02/11 11:58:24;;;;;;;1.17;1.00;;;16.60;98.00;;;;;;5011978;28;20479;-45
2024/02/11 12:01:03;;;;;;;1.83;1.08;;;16.60;97.90;;;;;;5011885;28;20068;-45
2024/02/11 12:03:30;;;;;;;0.93;0.93;;;16.60;97.90;;;;;;5012012;28;20056;-45
2024/02/11 12:05:57;;;;;;;1.00;0.90;;;16.60;97.80;;;;;;5011454;28;20022;-45
2024/02/11 12:08:25;;;;;;;2.05;0.95;;;16.60;97.80;;;;;;5012116;28;20022;-45
2024/02/11 12:11:06;;;;;;;1.88;1.33;;;16.60;97.80;;;;;;5011937;28;20377;-46
2024/02/11 12:13:36;;;;;;;1.95;1.00;;;16.60;97.80;;;;;;5012019;28;20546;-45
2024/02/11 12:16:04;;;;;;;1.65;1.00;;;16.60;97.80;;;;;;5011940;28;20026;-46
2024/02/11 12:18:30;;;;;;;1.45;0.90;;;16.60;97.80;;;;;;5011945;28;20030;-45
2024/02/11 12:20:57;;;;;;;1.90;1.02;;;16.70;97.80;;;;;;5011564;28;20093;-46
2024/02/11 12:23:23;;;;;;;0.95;0.70;;;16.70;97.70;;;;;;5011757;28;20425;-46
2024/02/11 12:25:57;;;;;;;1.25;0.88;;;16.70;97.70;;;;;;5011866;28;20137;-45
2024/02/11 12:28:27;;;;;;;1.53;0.90;;;16.70;97.80;;;;;;5011615;28;20037;-44
2024/02/11 12:31:11;;;;;;;1.00;0.85;;;16.80;97.80;;;;;;5011673;28;20301;-45
2024/02/11 12:33:41;;;;;;;1.00;0.80;;;16.80;97.80;;;;;;5011724;28;20018;-45
2024/02/11 12:36:14;;;;;;;1.20;0.88;;;16.80;97.80;;;;;;5011599;28;20069;-45
2024/02/11 12:38:44;;;;;;;0.70;0.70;;;16.90;97.80;;;;;;5012036;28;20076;-45
2024/02/11 12:41:11;;;;;;;0.90;0.70;;;17.00;97.80;;;;;;5012101;28;20025;-44
2024/02/11 12:43:39;;;;;;;0.88;0.65;;;17.10;97.70;;;;;;5011511;28;20022;-46
2024/02/11 12:46:08;;;;;;;1.23;0.70;;;17.10;97.70;;;;;;5011460;28;20058;-46
2024/02/11 12:48:36;;;;;;;0.85;0.70;;;17.20;97.60;;;;;;5011869;28;20018;-44
2024/02/11 12:51:03;;;;;;;1.95;0.70;;;17.30;97.60;;;;;;5011627;28;20022;-45